Time;durP1;ratioP1;P1;durP2;ratioP2;P2;SDS_P1;SDS_P2;PMS_P1;PMS_P2;Temp;Humidity;BMP_temperature;BMP_pressure;BME280_temperature;BME280_humidity;BME280_pressure;Samples;Min_cycle;Max_cycle;Signal;HPM_P1;HPM_P2
2023/08/06 00:02:00;;;;;;;2.67;1.70;;;;;;;15.70;89.99;97933.31;4939489;28;20233;-62
2023/08/06 00:04:26;;;;;;;5.03;1.80;;;;;;;15.60;92.12;97920.56;4943669;28;20237;-62
2023/08/06 00:06:53;;;;;;;5.87;1.60;;;;;;;15.60;89.24;97929.25;4941141;28;20231;-62
2023/08/06 00:09:19;;;;;;;2.10;1.60;;;;;;;15.81;87.49;97929.28;4943679;28;20240;-62
2023/08/06 00:11:47;;;;;;;2.77;1.50;;;;;;;15.71;88.52;97921.78;4943329;28;20229;-62
2023/08/06 00:14:17;;;;;;;2.83;1.87;;;;;;;15.52;91.61;97920.75;4941274;28;20232;-62
2023/08/06 00:16:44;;;;;;;3.13;1.83;;;;;;;15.46;89.77;97911.81;4943466;28;20232;-62
2023/08/06 00:19:12;;;;;;;2.67;1.87;;;;;;;15.49;89.79;97917.50;4940632;28;20289;-62
2023/08/06 00:21:38;;;;;;;3.60;1.63;;;;;;;15.54;90.54;97918.72;4943117;28;20233;-61
2023/08/06 00:24:05;;;;;;;3.30;1.57;;;;;;;15.50;92.56;97916.50;4940535;28;20245;-62
2023/08/06 00:26:32;;;;;;;2.73;1.63;;;;;;;15.48;90.96;97917.69;4943365;28;20243;-62
2023/08/06 00:29:00;;;;;;;3.43;1.90;;;;;;;15.61;87.80;97914.28;4937808;28;20260;-62
2023/08/06 00:31:26;;;;;;;4.93;1.73;;;;;;;15.71;87.27;97917.34;4942990;28;20333;-61
2023/08/06 00:33:53;;;;;;;2.50;1.50;;;;;;;15.76;87.11;97909.66;4935115;28;20744;-63
2023/08/06 00:36:22;;;;;;;4.80;1.73;;;;;;;15.74;87.30;97906.41;4941448;28;20327;-62
2023/08/06 00:38:49;;;;;;;4.20;2.00;;;;;;;15.76;88.64;97901.75;4943426;28;20225;-62
2023/08/06 00:41:22;;;;;;;3.07;1.83;;;;;;;15.66;88.19;97909.22;4941764;28;20241;-62
2023/08/06 00:43:49;;;;;;;3.33;1.70;;;;;;;15.70;86.74;97904.38;4943533;28;20256;-62
2023/08/06 00:46:42;;;;;;;4.30;1.90;;;;;;;15.80;86.45;97896.88;4942474;28;20268;-63
2023/08/06 00:49:08;;;;;;;4.90;1.83;;;;;;;15.82;86.47;97901.97;4940750;28;20229;-62
2023/08/06 00:51:35;;;;;;;4.23;1.77;;;;;;;15.89;87.02;97908.06;4945369;28;20778;-62
2023/08/06 00:54:03;;;;;;;5.63;1.70;;;;;;;15.85;85.39;97897.09;4944173;28;20223;-62
2023/08/06 00:56:30;;;;;;;3.50;1.50;;;;;;;15.76;85.15;97883.34;4945070;29;20248;-63
2023/08/06 00:58:57;;;;;;;3.87;2.30;;;;;;;15.81;84.49;97890.59;4946277;28;20239;-62
2023/08/06 01:01:24;;;;;;;3.47;1.67;;;;;;;15.88;83.72;97890.66;4943990;28;20238;-61
2023/08/06 01:03:52;;;;;;;5.13;2.17;;;;;;;15.83;85.54;97891.22;4945485;28;20222;-61
2023/08/06 01:06:35;;;;;;;2.70;1.50;;;;;;;15.79;86.08;97900.53;4944002;28;20241;-61
2023/08/06 01:09:09;;;;;;;3.47;1.93;;;;;;;15.83;86.67;97890.41;4944106;28;20229;-60
2023/08/06 01:11:47;;;;;;;3.63;2.00;;;;;;;15.76;87.35;97885.97;4945017;28;20229;-60
2023/08/06 01:14:20;;;;;;;5.90;2.07;;;;;;;15.64;89.59;97877.06;4957208;28;20244;-60
2023/08/06 01:16:47;;;;;;;5.53;1.80;;;;;;;15.65;88.17;97879.47;4953893;28;20231;-59
2023/08/06 01:19:19;;;;;;;5.43;2.13;;;;;;;15.79;87.61;97876.84;4942050;28;20245;-61
2023/08/06 01:21:46;;;;;;;8.17;2.20;;;;;;;15.76;87.28;97872.81;4945800;28;20248;-61
2023/08/06 01:24:14;;;;;;;2.43;1.60;;;;;;;15.77;86.16;97870.97;4942507;28;20253;-61
2023/08/06 01:26:44;;;;;;;3.30;1.90;;;;;;;15.79;87.42;97869.78;4944731;28;20233;-60
2023/08/06 01:29:18;;;;;;;3.57;1.90;;;;;;;15.81;88.85;97874.81;4932033;28;20718;-60
2023/08/06 01:31:48;;;;;;;4.33;1.77;;;;;;;15.92;86.18;97870.78;4937409;28;20245;-60
2023/08/06 01:34:18;;;;;;;5.33;1.73;;;;;;;15.89;85.10;97863.31;4941067;28;20237;-61
2023/08/06 01:36:47;;;;;;;3.43;1.77;;;;;;;16.00;85.05;97860.03;4946030;28;20296;-61
2023/08/06 01:39:13;;;;;;;4.93;1.40;;;;;;;15.92;85.87;97863.72;4944265;28;20237;-61
2023/08/06 01:41:40;;;;;;;3.77;1.90;;;;;;;16.00;87.00;97862.66;4945656;28;20246;-61
2023/08/06 01:44:07;;;;;;;4.03;1.73;;;;;;;15.92;86.81;97850.56;4941726;28;20248;-61
2023/08/06 01:46:33;;;;;;;2.60;1.43;;;;;;;15.93;86.24;97854.81;4947101;28;20246;-61
2023/08/06 01:49:00;;;;;;;3.43;1.83;;;;;;;15.92;87.22;97862.88;4941839;28;20758;-61
2023/08/06 01:51:26;;;;;;;4.63;1.70;;;;;;;15.89;89.26;97861.47;4946035;28;20610;-61
2023/08/06 01:53:54;;;;;;;3.00;1.60;;;;;;;15.84;87.70;97863.09;4948541;28;20241;-61
2023/08/06 01:56:22;;;;;;;6.33;1.80;;;;;;;15.86;91.31;97875.03;4960504;28;20234;-61
2023/08/06 01:58:48;;;;;;;4.03;1.63;;;;;;;15.73;92.45;97867.94;4943857;29;20227;-61
2023/08/06 02:01:20;;;;;;;2.77;1.40;;;;;;;15.67;93.21;97865.31;4942438;28;20241;-61
2023/08/06 02:03:47;;;;;;;3.43;1.53;;;;;;;15.53;96.17;97854.78;4943630;29;20760;-61
2023/08/06 02:06:13;;;;;;;4.30;1.87;;;;;;;15.50;97.80;97855.19;4936215;28;20234;-60
2023/08/06 02:08:40;;;;;;;4.03;2.10;;;;;;;15.45;97.04;97853.16;4944001;29;20233;-61
2023/08/06 02:11:08;;;;;;;8.07;1.83;;;;;;;15.40;96.39;97852.13;4942173;28;20589;-61
2023/08/06 02:13:35;;;;;;;4.17;2.20;;;;;;;15.40;95.68;97850.31;4945566;28;20224;-61
2023/08/06 02:16:02;;;;;;;3.47;1.83;;;;;;;15.39;98.38;97861.84;4930587;28;20695;-61
2023/08/06 02:18:28;;;;;;;5.93;1.73;;;;;;;15.35;99.92;97861.47;4945628;28;20236;-61
2023/08/06 02:20:59;;;;;;;6.70;1.93;;;;;;;15.25;100.00;97870.72;4940677;28;20284;-61
2023/08/06 02:23:26;;;;;;;6.27;1.87;;;;;;;15.15;100.00;97868.50;4944834;28;20218;-61
2023/08/06 02:25:58;;;;;;;4.80;1.90;;;;;;;15.08;100.00;97880.81;4945122;28;20244;-61
2023/08/06 02:28:26;;;;;;;11.27;2.67;;;;;;;15.01;100.00;97875.53;4944173;28;20308;-61
2023/08/06 02:30:53;;;;;;;5.00;2.53;;;;;;;14.99;100.00;97882.78;4945030;28;20238;-61
2023/08/06 02:33:20;;;;;;;4.20;1.93;;;;;;;14.85;100.00;97876.69;4934020;29;20232;-61
2023/08/06 02:35:46;;;;;;;3.60;1.87;;;;;;;14.84;100.00;97869.81;4944264;29;20231;-61
2023/08/06 02:38:13;;;;;;;4.70;2.20;;;;;;;14.73;100.00;97873.84;4941101;28;22037;-61
2023/08/06 02:40:44;;;;;;;5.13;2.00;;;;;;;14.56;100.00;97875.94;4935734;29;20645;-61
2023/08/06 02:43:11;;;;;;;5.20;2.40;;;;;;;14.47;100.00;97865.59;4932408;28;20233;-61
2023/08/06 02:45:39;;;;;;;4.03;2.30;;;;;;;14.50;100.00;97872.28;4943919;29;20595;-61
2023/08/06 02:48:06;;;;;;;4.30;2.70;;;;;;;14.45;100.00;97866.81;4943000;28;20233;-61
2023/08/06 02:50:40;;;;;;;7.77;2.73;;;;;;;14.41;100.00;97892.63;4951174;28;20683;-61
2023/08/06 02:53:06;;;;;;;5.00;2.77;;;;;;;14.28;100.00;97882.88;4941768;28;20686;-60
2023/08/06 02:55:34;;;;;;;4.33;2.77;;;;;;;14.14;100.00;97889.03;4949149;28;20230;-60
2023/08/06 02:58:01;;;;;;;7.63;2.40;;;;;;;14.06;100.00;97879.50;4945956;28;20657;-60
2023/08/06 03:00:32;;;;;;;3.87;2.20;;;;;;;14.02;100.00;97878.28;4948023;28;20236;-60
2023/08/06 03:03:02;;;;;;;6.30;2.23;;;;;;;14.03;100.00;97882.53;4944634;28;20228;-60
2023/08/06 03:05:36;;;;;;;3.07;1.77;;;;;;;14.11;100.00;97881.56;4947691;28;21029;-60
2023/08/06 03:08:03;;;;;;;5.83;2.00;;;;;;;14.05;100.00;97875.28;4943865;28;20234;-61
2023/08/06 03:10:30;;;;;;;5.27;1.50;;;;;;;14.06;100.00;97873.44;4947911;28;20235;-61
2023/08/06 03:13:01;;;;;;;1.83;1.50;;;;;;;14.03;100.00;97866.78;4943728;28;20242;-60
2023/08/06 03:15:29;;;;;;;2.37;1.30;;;;;;;14.00;100.00;97867.97;4946992;29;20226;-61
2023/08/06 03:17:57;;;;;;;5.97;1.50;;;;;;;13.99;100.00;97855.03;4944891;28;20242;-61
2023/08/06 03:20:26;;;;;;;2.53;1.20;;;;;;;13.97;100.00;97864.91;4946565;29;20916;-60
2023/08/06 03:22:52;;;;;;;3.93;1.40;;;;;;;13.93;100.00;97855.81;4947528;29;20235;-60
2023/08/06 03:25:19;;;;;;;2.07;1.07;;;;;;;13.93;100.00;97859.22;4936417;29;20231;-61
2023/08/06 03:27:48;;;;;;;2.33;1.27;;;;;;;13.91;100.00;97866.47;4946811;29;20228;-61
2023/08/06 03:33:00;;;;;;;2.73;1.10;;;;;;;13.92;100.00;97867.31;4939387;23;20335;-62
2023/08/06 03:35:28;;;;;;;1.87;1.03;;;;;;;13.87;100.00;97865.22;4927890;29;20256;-61
2023/08/06 03:37:55;;;;;;;2.70;1.00;;;;;;;13.82;100.00;97865.81;4926261;28;20297;-61
2023/08/06 03:40:21;;;;;;;3.13;0.97;;;;;;;13.83;100.00;97864.00;4929366;29;20237;-60
2023/08/06 03:42:48;;;;;;;3.70;1.03;;;;;;;13.91;100.00;97863.06;4917404;29;20243;-60
2023/08/06 03:45:15;;;;;;;6.80;1.60;;;;;;;13.92;100.00;97862.84;4921118;23;20662;-62
2023/08/06 03:47:44;;;;;;;1.83;1.00;;;;;;;13.92;100.00;97859.44;4917556;28;20276;-62
2023/08/06 03:50:13;;;;;;;3.00;1.13;;;;;;;13.96;100.00;97868.53;4913743;29;20227;-62
2023/08/06 03:52:41;;;;;;;2.73;1.17;;;;;;;13.94;100.00;97860.84;4898710;29;20226;-62
2023/08/06 03:55:08;;;;;;;4.40;1.30;;;;;;;14.03;100.00;97851.03;4898823;29;20324;-63
2023/08/06 03:57:35;;;;;;;2.87;1.30;;;;;;;14.02;100.00;97858.06;4899143;29;20316;-63
2023/08/06 04:00:03;;;;;;;3.63;1.10;;;;;;;13.96;100.00;97853.59;4893097;29;20249;-63
2023/08/06 04:02:41;;;;;;;4.00;1.40;;;;;;;13.95;100.00;97857.22;4901251;29;20229;-63
2023/08/06 04:05:09;;;;;;;4.07;1.27;;;;;;;14.05;100.00;97843.78;4910896;29;20243;-63
2023/08/06 04:07:36;;;;;;;3.37;1.30;;;;;;;13.91;100.00;97845.50;4898077;29;20236;-63
2023/08/06 04:10:05;;;;;;;6.27;1.30;;;;;;;14.01;100.00;97840.72;4908623;29;20255;-63
2023/08/06 04:12:32;;;;;;;2.57;1.20;;;;;;;13.98;100.00;97835.06;4898768;29;20717;-63
2023/08/06 04:15:00;;;;;;;4.43;1.17;;;;;;;13.98;100.00;97832.44;4897496;29;20288;-63
2023/08/06 04:17:27;;;;;;;2.77;1.43;;;;;;;13.91;100.00;97848.13;4913827;29;20268;-63
2023/08/06 04:19:58;;;;;;;5.60;1.10;;;;;;;13.93;100.00;97842.69;4899500;29;20271;-63
2023/08/06 04:22:24;;;;;;;3.90;1.20;;;;;;;13.96;100.00;97855.44;4899930;29;20314;-63
2023/08/06 04:24:51;;;;;;;3.00;1.30;;;;;;;13.94;100.00;97852.97;4899262;29;20232;-63
2023/08/06 04:27:21;;;;;;;4.20;1.07;;;;;;;14.03;100.00;97851.81;4896591;29;20701;-63
2023/08/06 04:29:49;;;;;;;4.67;1.20;;;;;;;13.91;100.00;97845.50;4897688;29;20236;-63
2023/08/06 04:32:17;;;;;;;2.57;1.30;;;;;;;13.91;100.00;97855.97;4896892;29;20236;-63
2023/08/06 04:34:48;;;;;;;2.73;1.10;;;;;;;13.91;100.00;97861.22;4895654;29;20317;-63
2023/08/06 04:37:16;;;;;;;6.82;1.38;;;;;;;13.90;100.00;97851.72;4897016;29;20447;-63
2023/08/06 04:39:43;;;;;;;3.73;1.20;;;;;;;13.94;100.00;97854.81;4905919;29;21023;-63
2023/08/06 04:42:11;;;;;;;2.60;1.27;;;;;;;13.88;100.00;97859.81;4901096;29;20233;-63
2023/08/06 04:44:39;;;;;;;3.23;0.73;;;;;;;13.81;100.00;97858.13;4895296;29;20220;-63
2023/08/06 04:47:06;;;;;;;5.87;0.97;;;;;;;13.75;100.00;97858.91;4898147;29;20228;-63
2023/08/06 04:49:32;;;;;;;3.43;0.80;;;;;;;13.73;100.00;97849.44;4899982;29;20247;-63
2023/08/06 04:51:59;;;;;;;3.53;1.00;;;;;;;13.77;100.00;97849.03;4894944;29;20259;-63
2023/08/06 04:54:25;;;;;;;3.43;1.53;;;;;;;13.74;100.00;97850.22;4900322;29;20581;-63
2023/08/06 04:56:52;;;;;;;2.20;0.90;;;;;;;13.83;100.00;97856.13;4900666;29;20236;-63
2023/08/06 04:59:19;;;;;;;3.57;0.60;;;;;;;13.73;100.00;97856.47;4897966;29;20239;-63
2023/08/06 05:01:46;;;;;;;2.30;0.73;;;;;;;13.70;100.00;97859.47;4899475;29;20299;-63
2023/08/06 05:04:13;;;;;;;2.50;0.70;;;;;;;13.61;100.00;97871.09;4892955;29;20234;-63
2023/08/06 05:06:40;;;;;;;2.33;0.60;;;;;;;13.67;100.00;97863.28;4897218;29;20235;-63
2023/08/06 05:09:06;;;;;;;2.43;0.70;;;;;;;13.65;100.00;97886.28;4896872;29;20238;-63
2023/08/06 05:11:33;;;;;;;2.63;0.60;;;;;;;13.57;100.00;97878.53;4897803;29;20318;-64
2023/08/06 05:14:00;;;;;;;2.07;0.60;;;;;;;13.48;100.00;97888.31;4894609;29;20232;-63
2023/08/06 05:16:26;;;;;;;2.30;0.70;;;;;;;13.53;100.00;97880.72;4905628;29;20673;-63
2023/08/06 05:18:54;;;;;;;3.03;0.80;;;;;;;13.42;100.00;97881.22;4896719;29;20477;-63
2023/08/06 05:21:22;;;;;;;2.47;0.63;;;;;;;13.49;100.00;97891.78;4894269;29;20723;-63
2023/08/06 05:23:48;;;;;;;2.27;0.50;;;;;;;13.44;100.00;97887.06;4895784;29;20231;-62
2023/08/06 05:26:19;;;;;;;1.93;0.57;;;;;;;13.40;100.00;97889.25;4895861;29;20236;-62
2023/08/06 05:28:46;;;;;;;3.50;0.47;;;;;;;13.38;100.00;97887.78;4896477;29;20696;-63
2023/08/06 05:31:13;;;;;;;1.13;0.63;;;;;;;13.38;100.00;97886.00;4896100;29;20248;-62
2023/08/06 05:33:39;;;;;;;3.87;0.57;;;;;;;13.34;100.00;97881.31;4898263;29;20245;-62
2023/08/06 05:36:07;;;;;;;1.60;0.50;;;;;;;13.24;100.00;97871.13;4894225;29;20244;-62
2023/08/06 05:38:34;;;;;;;2.37;0.53;;;;;;;13.26;100.00;97884.88;4898931;29;20228;-62
2023/08/06 05:41:02;;;;;;;2.80;0.60;;;;;;;13.32;100.00;97884.13;4893934;29;20267;-62
2023/08/06 05:43:28;;;;;;;0.90;0.50;;;;;;;13.26;100.00;97877.00;4896092;29;20719;-62
2023/08/06 05:45:55;;;;;;;0.90;0.40;;;;;;;13.25;100.00;97880.63;4895391;29;20223;-62
2023/08/06 05:48:24;;;;;;;5.37;0.57;;;;;;;13.29;100.00;97877.44;4895880;29;20734;-62
2023/08/06 05:50:51;;;;;;;5.03;0.50;;;;;;;13.37;100.00;97900.09;4896177;29;20241;-62
2023/08/06 05:53:19;;;;;;;1.67;0.53;;;;;;;13.51;100.00;97877.47;4907671;29;20243;-62
2023/08/06 05:55:46;;;;;;;1.57;0.47;;;;;;;13.46;100.00;97874.59;4899163;29;20216;-62
2023/08/06 05:58:12;;;;;;;1.77;0.50;;;;;;;13.38;100.00;97880.75;4894336;29;20227;-62
2023/08/06 06:00:39;;;;;;;2.63;0.60;;;;;;;13.38;100.00;97904.34;4900485;29;20250;-62
2023/08/06 06:03:06;;;;;;;0.40;0.40;;;;;;;13.36;100.00;97900.28;4896326;29;20231;-62
2023/08/06 06:05:33;;;;;;;0.87;0.37;;;;;;;13.27;100.00;97894.34;4896387;29;20278;-62
2023/08/06 06:07:59;;;;;;;1.97;1.30;;;;;;;13.44;100.00;97918.53;4894720;29;20236;-62
2023/08/06 06:10:27;;;;;;;1.03;0.53;;;;;;;13.35;100.00;97909.97;4898448;29;20326;-63
2023/08/06 06:12:54;;;;;;;1.57;0.50;;;;;;;13.31;100.00;97911.34;4895766;29;20651;-62
2023/08/06 06:15:20;;;;;;;1.43;0.40;;;;;;;13.27;100.00;97918.75;4897388;29;20239;-62
2023/08/06 06:17:47;;;;;;;0.93;0.50;;;;;;;13.36;100.00;97918.63;4895514;29;20591;-63
2023/08/06 06:20:14;;;;;;;2.13;0.30;;;;;;;13.39;100.00;97910.38;4896427;29;21192;-63
2023/08/06 06:22:40;;;;;;;0.67;0.30;;;;;;;13.33;100.00;97919.81;4897557;29;20245;-63
2023/08/06 06:25:08;;;;;;;0.93;0.30;;;;;;;13.30;100.00;97912.31;4893299;29;20228;-64
2023/08/06 06:27:36;;;;;;;1.83;0.50;;;;;;;13.29;100.00;97919.38;4899821;29;20287;-64
2023/08/06 06:30:04;;;;;;;0.43;0.20;;;;;;;13.38;100.00;97921.88;4898510;29;20236;-64
2023/08/06 06:32:30;;;;;;;1.13;0.20;;;;;;;13.39;100.00;97926.94;4916512;29;20235;-64
2023/08/06 06:34:57;;;;;;;0.30;0.20;;;;;;;13.50;100.00;97928.28;4897024;29;20235;-64
2023/08/06 06:37:23;;;;;;;1.20;0.20;;;;;;;13.47;100.00;97936.50;4900422;29;20246;-64
2023/08/06 06:39:50;;;;;;;0.40;0.20;;;;;;;13.47;100.00;97952.25;4904450;29;20239;-63
2023/08/06 06:42:17;;;;;;;0.83;0.20;;;;;;;13.54;100.00;97926.09;4898109;29;20254;-63
2023/08/06 06:44:48;;;;;;;2.17;0.30;;;;;;;13.63;100.00;97938.09;4906316;29;20429;-63
2023/08/06 06:47:15;;;;;;;4.80;0.30;;;;;;;13.70;100.00;97941.59;4899178;29;20252;-63
2023/08/06 06:49:42;;;;;;;0.80;0.30;;;;;;;13.77;100.00;97959.22;4901166;29;20237;-63
2023/08/06 06:52:08;;;;;;;1.03;0.33;;;;;;;13.60;100.00;97942.88;4899681;29;20258;-63
2023/08/06 06:54:35;;;;;;;0.40;0.20;;;;;;;13.60;100.00;97948.13;4900409;29;20224;-62
2023/08/06 06:57:02;;;;;;;0.27;0.20;;;;;;;13.58;100.00;97949.13;4898161;29;20233;-62
2023/08/06 06:59:28;;;;;;;3.40;1.50;;;;;;;13.64;100.00;97938.91;4901770;29;20731;-62
2023/08/06 07:01:56;;;;;;;0.10;0.10;;;;;;;13.65;100.00;97941.34;4897759;29;20238;-62
2023/08/06 07:04:23;;;;;;;3.63;0.33;;;;;;;13.62;100.00;97946.13;4900323;29;20276;-63
2023/08/06 07:06:49;;;;;;;0.93;0.30;;;;;;;13.70;100.00;97944.22;4912974;29;20221;-63
2023/08/06 07:09:16;;;;;;;1.33;0.27;;;;;;;13.76;100.00;97939.22;4897163;29;20633;-62
2023/08/06 07:11:43;;;;;;;1.40;0.30;;;;;;;13.77;100.00;97946.09;4899274;29;20228;-62
2023/08/06 07:14:10;;;;;;;4.77;0.33;;;;;;;13.95;100.00;97943.81;4899372;29;20326;-62
2023/08/06 07:16:37;;;;;;;0.30;0.10;;;;;;;13.74;100.00;97949.88;4902857;29;20577;-62
2023/08/06 07:19:05;;;;;;;2.73;0.20;;;;;;;13.69;100.00;97955.72;4896269;29;20234;-62
2023/08/06 07:21:32;;;;;;;1.67;0.40;;;;;;;13.68;100.00;97954.09;4900904;29;20759;-62
2023/08/06 07:23:59;;;;;;;0.77;0.20;;;;;;;13.58;100.00;97951.75;4897607;29;20736;-62
2023/08/06 07:26:26;;;;;;;1.80;0.20;;;;;;;13.64;100.00;97954.63;4898384;29;20272;-62
2023/08/06 07:28:53;;;;;;;1.67;0.30;;;;;;;13.58;100.00;97950.97;4900332;29;20235;-62
2023/08/06 07:31:22;;;;;;;0.30;0.10;;;;;;;13.70;100.00;97962.56;4897286;29;20722;-62
2023/08/06 07:33:49;;;;;;;0.77;0.20;;;;;;;13.68;100.00;97961.94;4898463;29;20239;-62
2023/08/06 07:36:21;;;;;;;0.83;0.10;;;;;;;13.70;100.00;97954.72;4896482;29;20275;-62
2023/08/06 07:38:51;;;;;;;1.55;0.20;;;;;;;13.80;100.00;97958.81;4897322;29;20805;-62
2023/08/06 07:41:22;;;;;;;0.97;0.10;;;;;;;13.88;100.00;97969.16;4894804;29;20779;-63
2023/08/06 07:43:49;;;;;;;0.10;0.10;;;;;;;13.77;100.00;97964.44;4897002;29;20319;-63
2023/08/06 07:46:22;;;;;;;1.10;0.30;;;;;;;13.78;100.00;97960.84;4895433;29;20241;-63
2023/08/06 07:48:49;;;;;;;0.50;0.10;;;;;;;13.75;100.00;97963.81;4899955;29;20676;-64
2023/08/06 07:51:42;;;;;;;1.20;0.10;;;;;;;13.62;100.00;97967.13;4899650;29;20314;-63
2023/08/06 07:54:08;;;;;;;1.97;0.27;;;;;;;13.69;100.00;97970.63;4898810;29;20224;-63
2023/08/06 07:56:36;;;;;;;1.20;0.20;;;;;;;13.74;100.00;97968.25;4897258;29;20228;-64
2023/08/06 07:59:03;;;;;;;1.27;0.23;;;;;;;13.88;100.00;97971.78;4894374;29;20730;-63
2023/08/06 08:01:29;;;;;;;1.80;0.30;;;;;;;13.92;100.00;97980.13;4899319;29;20247;-63
2023/08/06 08:03:56;;;;;;;1.73;0.30;;;;;;;13.68;100.00;97988.19;4894146;29;20216;-63
2023/08/06 08:06:23;;;;;;;2.60;0.23;;;;;;;13.74;100.00;97986.59;4899635;29;20244;-63
2023/08/06 08:08:51;;;;;;;1.80;0.23;;;;;;;13.75;100.00;97975.13;4899121;29;20274;-63
2023/08/06 08:11:22;;;;;;;1.63;0.23;;;;;;;13.95;100.00;97979.75;4896343;29;20588;-63
2023/08/06 08:13:49;;;;;;;0.83;0.57;;;;;;;14.10;100.00;97975.22;4901294;29;20283;-64
2023/08/06 08:16:40;;;;;;;3.20;0.40;;;;;;;14.15;100.00;97985.97;4897745;29;20732;-63
2023/08/06 08:19:06;;;;;;;0.40;0.20;;;;;;;14.03;100.00;97984.84;4892769;29;20229;-63
2023/08/06 08:21:33;;;;;;;0.33;0.20;;;;;;;13.98;100.00;97980.16;4899593;29;20245;-63
2023/08/06 08:24:01;;;;;;;2.50;0.20;;;;;;;13.91;100.00;97981.13;4897223;29;20216;-63
2023/08/06 08:26:28;;;;;;;0.87;0.30;;;;;;;13.92;100.00;97973.03;4896075;29;20236;-63
2023/08/06 08:28:55;;;;;;;0.70;0.30;;;;;;;13.90;100.00;98001.28;4895411;29;20228;-63
2023/08/06 08:31:22;;;;;;;0.43;0.30;;;;;;;13.87;100.00;97985.91;4899844;29;20608;-63
2023/08/06 08:33:49;;;;;;;1.07;0.40;;;;;;;13.92;100.00;98001.91;4898983;29;20225;-63
2023/08/06 08:36:22;;;;;;;1.13;0.20;;;;;;;13.79;100.00;97991.28;4898221;29;20307;-63
2023/08/06 08:38:49;;;;;;;0.73;0.20;;;;;;;13.81;100.00;98005.84;4898732;29;20758;-63
2023/08/06 08:41:24;;;;;;;2.03;0.30;;;;;;;13.75;100.00;97993.47;4899595;29;20286;-63
2023/08/06 08:43:51;;;;;;;2.63;0.40;;;;;;;13.78;100.00;98000.19;4900421;29;20223;-63
2023/08/06 08:46:23;;;;;;;0.60;0.20;;;;;;;13.85;100.00;98003.66;4897739;29;20251;-63
2023/08/06 08:48:49;;;;;;;0.77;0.23;;;;;;;13.83;100.00;97995.97;4898810;29;20228;-63
2023/08/06 08:51:23;;;;;;;1.63;0.30;;;;;;;13.92;100.00;98004.53;4899174;29;20732;-63
2023/08/06 08:53:55;;;;;;;1.53;0.27;;;;;;;13.76;100.00;98018.72;4901085;29;20231;-63
2023/08/06 08:56:24;;;;;;;0.57;0.23;;;;;;;13.55;100.00;98012.44;4898432;29;20243;-63
2023/08/06 08:58:51;;;;;;;1.23;0.20;;;;;;;13.60;100.00;98014.50;4900455;29;20250;-63
2023/08/06 09:01:22;;;;;;;1.03;0.30;;;;;;;13.61;100.00;98012.69;4898354;29;20236;-63
2023/08/06 09:03:50;;;;;;;1.83;0.23;;;;;;;13.64;100.00;98007.91;4896738;29;20231;-63
2023/08/06 09:06:24;;;;;;;0.47;0.30;;;;;;;13.55;100.00;98004.56;4898530;29;20741;-63
2023/08/06 09:08:57;;;;;;;0.30;0.20;;;;;;;13.62;100.00;98009.06;4899238;29;20228;-63
2023/08/06 09:11:26;;;;;;;1.70;0.50;;;;;;;13.60;100.00;98017.13;4897106;29;20246;-63
2023/08/06 09:13:57;;;;;;;0.40;0.10;;;;;;;13.51;100.00;98013.00;4897023;29;20224;-64
2023/08/06 09:16:24;;;;;;;0.70;0.27;;;;;;;13.52;100.00;98017.25;4897212;29;20228;-64
2023/08/06 09:18:51;;;;;;;0.93;0.30;;;;;;;13.57;100.00;98022.75;4897074;29;20247;-64
2023/08/06 09:21:22;;;;;;;1.07;0.30;;;;;;;13.70;100.00;98022.06;4895200;29;20246;-64
2023/08/06 09:23:49;;;;;;;2.60;0.30;;;;;;;13.71;100.00;98040.25;4895992;29;20224;-64
2023/08/06 09:26:43;;;;;;;0.60;0.23;;;;;;;13.69;100.00;98036.19;4893098;29;20310;-64
2023/08/06 09:29:11;;;;;;;0.63;0.30;;;;;;;13.75;100.00;98034.66;4895655;29;20226;-64
2023/08/06 09:31:42;;;;;;;1.00;0.30;;;;;;;13.84;100.00;98051.88;4896756;29;20259;-64
2023/08/06 09:34:12;;;;;;;0.40;0.10;;;;;;;13.77;100.00;98049.19;4895899;29;20256;-64
2023/08/06 09:36:41;;;;;;;0.23;0.20;;;;;;;13.71;100.00;98040.25;4896713;29;20286;-64
2023/08/06 09:39:14;;;;;;;1.80;0.20;;;;;;;13.70;100.00;98072.72;4910394;29;20235;-64
2023/08/06 09:41:42;;;;;;;0.70;0.20;;;;;;;13.71;100.00;98056.00;4896423;29;20226;-64
2023/08/06 09:44:17;;;;;;;2.03;0.20;;;;;;;13.61;100.00;98055.47;4894540;29;20237;-64
2023/08/06 09:46:44;;;;;;;11.00;5.07;;;;;;;13.57;100.00;98048.97;4897866;29;20287;-64
2023/08/06 09:49:11;;;;;;;1.77;0.40;;;;;;;13.56;100.00;98070.94;4894154;29;20234;-64
2023/08/06 09:51:39;;;;;;;0.80;0.40;;;;;;;13.51;100.00;98076.72;4897114;29;20240;-64
2023/08/06 09:54:08;;;;;;;0.50;0.30;;;;;;;13.53;100.00;98090.47;4910807;29;20282;-63
2023/08/06 09:56:37;;;;;;;0.40;0.30;;;;;;;13.68;100.00;98090.47;4895399;29;20246;-64
2023/08/06 09:59:06;;;;;;;1.37;0.93;;;;;;;13.67;100.00;98093.25;4894305;29;20319;-64
2023/08/06 10:01:33;;;;;;;1.03;0.50;;;;;;;13.69;100.00;98112.25;4897732;29;20306;-64
2023/08/06 10:04:01;;;;;;;2.43;0.97;;;;;;;13.70;100.00;98088.47;4902598;29;20228;-64
2023/08/06 10:06:29;;;;;;;6.00;5.47;;;;;;;13.64;100.00;98107.56;4902972;29;20228;-64
2023/08/06 10:08:56;;;;;;;1.37;0.53;;;;;;;13.65;100.00;98114.44;4901405;29;20583;-64
2023/08/06 10:11:24;;;;;;;3.80;0.70;;;;;;;13.63;100.00;98108.56;4902459;29;20258;-64
2023/08/06 10:13:57;;;;;;;0.67;0.50;;;;;;;13.65;100.00;98119.69;4903743;29;20311;-64
2023/08/06 10:16:26;;;;;;;2.83;1.50;;;;;;;13.69;100.00;98126.19;4900780;29;20242;-64
2023/08/06 10:18:53;;;;;;;1.73;0.63;;;;;;;13.70;100.00;98133.06;4902847;29;20255;-64
2023/08/06 10:21:24;;;;;;;1.77;0.90;;;;;;;13.71;100.00;98149.59;4904228;29;20315;-64
2023/08/06 10:23:55;;;;;;;2.50;1.00;;;;;;;13.70;100.00;98135.69;4901969;29;20230;-64
2023/08/06 10:26:27;;;;;;;1.57;0.47;;;;;;;13.76;100.00;98133.31;4902949;29;20234;-64
2023/08/06 10:28:54;;;;;;;2.13;1.00;;;;;;;13.88;100.00;98131.81;4903738;29;20256;-64
2023/08/06 10:31:55;;;;;;;1.33;0.70;;;;;;;13.71;100.00;98150.41;4903253;29;20241;-64
2023/08/06 10:34:22;;;;;;;4.77;1.50;;;;;;;13.71;100.00;98147.78;4903794;29;20311;-64
2023/08/06 10:36:49;;;;;;;2.47;0.90;;;;;;;13.81;100.00;98173.72;4918596;29;20694;-64
2023/08/06 10:39:15;;;;;;;3.30;2.57;;;;;;;13.74;100.00;98188.56;4903498;29;20244;-64
2023/08/06 10:41:43;;;;;;;2.90;1.10;;;;;;;13.61;100.00;98186.59;4902764;29;20236;-64
2023/08/06 10:44:11;;;;;;;2.10;1.10;;;;;;;13.61;100.00;98185.75;4898439;29;20225;-64
2023/08/06 10:46:39;;;;;;;3.47;1.20;;;;;;;13.56;100.00;98189.75;4905803;29;20238;-64
2023/08/06 10:49:07;;;;;;;4.00;1.27;;;;;;;13.61;100.00;98191.84;4898536;29;20236;-64
2023/08/06 10:51:34;;;;;;;1.67;1.20;;;;;;;13.50;100.00;98192.28;4903043;29;20262;-64
2023/08/06 10:54:00;;;;;;;4.30;1.37;;;;;;;13.46;100.00;98198.88;4898911;29;20273;-64
2023/08/06 10:56:27;;;;;;;3.90;1.70;;;;;;;13.43;100.00;98202.66;4905831;29;20726;-64
2023/08/06 10:58:56;;;;;;;4.57;1.77;;;;;;;13.27;100.00;98201.81;4902614;29;20246;-64
2023/08/06 11:01:23;;;;;;;3.70;1.90;;;;;;;13.37;100.00;98216.47;4900341;29;20264;-64
2023/08/06 11:03:53;;;;;;;5.93;2.03;;;;;;;13.32;100.00;98209.16;4901212;29;20564;-64
2023/08/06 11:06:24;;;;;;;3.27;1.80;;;;;;;13.25;100.00;98200.38;4901252;29;20340;-64
2023/08/06 11:08:53;;;;;;;4.67;2.10;;;;;;;13.28;100.00;98208.66;4906239;29;20223;-64
2023/08/06 11:11:23;;;;;;;6.00;1.80;;;;;;;13.28;100.00;98210.50;4902329;29;20238;-64
2023/08/06 11:13:51;;;;;;;3.63;1.90;;;;;;;13.32;100.00;98209.16;4899351;29;20236;-64
2023/08/06 11:16:24;;;;;;;3.20;1.67;;;;;;;13.27;100.00;98217.53;4895651;29;20255;-64
2023/08/06 11:18:53;;;;;;;3.53;2.00;;;;;;;13.20;100.00;98213.19;4907529;29;20238;-63
2023/08/06 11:21:24;;;;;;;4.40;1.60;;;;;;;13.23;100.00;98220.69;4900584;29;20328;-63
2023/08/06 11:23:52;;;;;;;4.77;2.00;;;;;;;13.38;100.00;98221.53;4897155;29;20716;-62
2023/08/06 11:26:23;;;;;;;2.80;1.80;;;;;;;13.33;100.00;98216.00;4894461;29;20256;-62
2023/08/06 11:28:50;;;;;;;4.13;2.10;;;;;;;13.36;100.00;98218.28;4898513;29;20224;-63
2023/08/06 11:31:23;;;;;;;4.33;1.70;;;;;;;13.35;100.00;98219.28;4901016;29;20236;-62
2023/08/06 11:33:52;;;;;;;4.30;1.90;;;;;;;13.37;100.00;98219.91;4900326;29;20241;-62
2023/08/06 11:36:30;;;;;;;2.27;1.70;;;;;;;13.40;100.00;98231.81;4901208;29;20228;-62